Time;durP1;ratioP1;P1;durP2;ratioP2;P2;SDS_P1;SDS_P2;PMS_P1;PMS_P2;Temp;Humidity;BMP_temperature;BMP_pressure;BME280_temperature;BME280_humidity;BME280_pressure;Samples;Min_cycle;Max_cycle;Signal;HPM_P1;HPM_P2
2021/09/23 00:00:05;;;;;;;;;;;;;;;8.34;100.00;101463.84;5012049;28;20007;-72
2021/09/23 00:02:48;;;;;;;;;;;;;;;8.40;100.00;101463.44;5009212;28;20400;-72
2021/09/23 00:05:16;;;;;;;;;;;;;;;8.53;100.00;101461.78;5012638;28;20001;-71
2021/09/23 00:07:43;;;;;;;;;;;;;;;8.65;100.00;101445.75;5012437;28;20392;-72
2021/09/23 00:10:12;;;;;;;;;;;;;;;8.69;100.00;101439.19;5012552;28;20332;-71
2021/09/23 00:12:39;;;;;;;;;;;;;;;8.75;100.00;101427.97;5012703;28;20478;-72
2021/09/23 00:15:07;;;;;;;;;;;;;;;8.71;100.00;101432.72;5012073;28;20192;-72
2021/09/23 00:17:33;;;;;;;;;;;;;;;8.65;100.00;101429.53;5012497;28;19949;-71
2021/09/23 00:19:59;;;;;;;;;;;;;;;8.59;100.00;101419.06;5012332;28;19976;-71
2021/09/23 00:22:26;;;;;;;;;;;;;;;8.50;100.00;101424.09;5011058;28;20032;-71
2021/09/23 00:24:52;;;;;;;;;;;;;;;8.51;100.00;101415.00;5012315;28;19957;-72
2021/09/23 00:27:18;;;;;;;;;;;;;;;8.54;100.00;101417.50;5012063;28;19926;-72
2021/09/23 00:29:46;;;;;;;;;;;;;;;8.43;100.00;101409.16;5012236;28;19929;-71
2021/09/23 00:32:13;;;;;;;;;;;;;;;8.48;100.00;101411.63;5011948;28;19925;-71
2021/09/23 00:34:39;;;;;;;;;;;;;;;8.48;100.00;101415.19;5012089;28;19953;-71
2021/09/23 00:37:05;;;;;;;;;;;;;;;8.43;100.00;101414.59;5012140;28;19984;-71
2021/09/23 00:39:31;;;;;;;;;;;;;;;8.47;100.00;101407.16;5011873;28;20364;-72
2021/09/23 00:42:03;;;;;;;;;;;;;;;8.59;100.00;101405.53;5012132;28;20024;-71
2021/09/23 00:44:29;;;;;;;;;;;;;;;8.69;100.00;101393.19;5011746;28;19930;-71
2021/09/23 00:46:57;;;;;;;;;;;;;;;8.71;100.00;101397.53;5010719;28;20381;-72
2021/09/23 00:49:23;;;;;;;;;;;;;;;8.62;100.00;101391.81;5011750;28;19979;-71
2021/09/23 00:51:51;;;;;;;;;;;;;;;8.61;100.00;101395.50;5010813;28;20188;-71
2021/09/23 00:54:17;;;;;;;;;;;;;;;8.54;100.00;101395.00;5011504;28;19972;-72
2021/09/23 00:56:44;;;;;;;;;;;;;;;8.45;100.00;101396.44;5010373;28;19932;-71
2021/09/23 00:59:10;;;;;;;;;;;;;;;8.46;100.00;101397.31;5011989;28;19983;-72
2021/09/23 01:01:45;;;;;;;;;;;;;;;8.60;100.00;101386.50;4993963;28;19961;-71
2021/09/23 01:04:14;;;;;;;;;;;;;;;8.78;100.00;101378.19;4993998;28;20278;-71
2021/09/23 01:06:41;;;;;;;;;;;;;;;8.91;100.00;101386.41;5010250;28;19933;-71
2021/09/23 01:09:10;;;;;;;;;;;;;;;8.95;100.00;101379.81;5010213;28;19996;-71
2021/09/23 01:11:36;;;;;;;;;;;;;;;8.96;100.00;101370.72;5011466;28;19992;-72
2021/09/23 01:14:03;;;;;;;;;;;;;;;8.97;100.00;101372.47;5010258;28;19926;-71
2021/09/23 01:16:43;;;;;;;;;;;;;;;8.91;100.00;101371.00;5010405;28;20356;-72
2021/09/23 01:19:31;;;;;;;;;;;;;;;9.02;100.00;101360.38;5010032;28;19926;-72
2021/09/23 01:22:00;;;;;;;;;;;;;;;9.08;100.00;101355.53;5010386;28;19980;-72
2021/09/23 01:24:36;;;;;;;;;;;;;;;9.12;100.00;101344.38;5010066;28;19936;-72
2021/09/23 01:27:03;;;;;;;;;;;;;;;9.02;100.00;101340.56;5009946;28;19933;-72
2021/09/23 01:29:33;;;;;;;;;;;;;;;9.01;100.00;101339.66;5010105;28;19949;-72
2021/09/23 01:32:05;;;;;;;;;;;;;;;9.06;100.00;101333.97;5010006;28;19957;-72
2021/09/23 01:34:32;;;;;;;;;;;;;;;9.07;100.00;101332.13;5010086;28;20478;-72
2021/09/23 01:37:01;;;;;;;;;;;;;;;9.04;100.00;101327.78;5009938;28;19925;-72
2021/09/23 01:39:28;;;;;;;;;;;;;;;9.04;100.00;101327.78;5011232;28;19975;-72
2021/09/23 01:42:02;;;;;;;;;;;;;;;8.99;100.00;101319.97;5010324;28;19941;-72
2021/09/23 01:44:31;;;;;;;;;;;;;;;9.06;100.00;101320.44;5010067;28;19961;-71
2021/09/23 01:47:03;;;;;;;;;;;;;;;9.09;100.00;101314.81;5009410;28;21872;-72
2021/09/23 01:49:33;;;;;;;;;;;;;;;9.07;100.00;101316.72;5009656;28;19929;-72
2021/09/23 01:52:01;;;;;;;;;;;;;;;9.08;100.00;101318.47;5010235;28;19961;-72
2021/09/23 01:54:27;;;;;;;;;;;;;;;9.07;100.00;101302.31;5006528;28;20353;-71
2021/09/23 01:56:55;;;;;;;;;;;;;;;9.17;100.00;101293.50;5009991;28;19979;-71
2021/09/23 01:59:24;;;;;;;;;;;;;;;9.14;100.00;101301.81;5009870;28;19926;-71
2021/09/23 02:01:54;;;;;;;;;;;;;;;9.17;100.00;101298.91;5009882;28;20370;-72
2021/09/23 02:04:20;;;;;;;;;;;;;;;9.10;100.00;101294.88;5009754;28;19925;-72
2021/09/23 02:06:47;;;;;;;;;;;;;;;9.10;100.00;101286.75;5009524;28;19926;-71
2021/09/23 02:09:15;;;;;;;;;;;;;;;9.14;100.00;101277.44;5011023;28;19967;-71
2021/09/23 02:11:42;;;;;;;;;;;;;;;9.19;100.00;101278.03;5010056;28;19926;-71
2021/09/23 02:14:08;;;;;;;;;;;;;;;9.24;100.00;101276.84;5010935;28;19991;-72
2021/09/23 02:16:34;;;;;;;;;;;;;;;9.21;100.00;101283.34;5009671;28;19948;-72
2021/09/23 02:19:21;;;;;;;;;;;;;;;9.16;100.00;101274.63;5010763;28;19926;-72
2021/09/23 02:21:48;;;;;;;;;;;;;;;9.08;100.00;101277.84;5009955;28;19979;-72
2021/09/23 02:24:16;;;;;;;;;;;;;;;9.04;100.00;101273.59;5013023;28;20021;-71
2021/09/23 02:26:42;;;;;;;;;;;;;;;8.97;100.00;101262.31;5013169;28;19926;-72
2021/09/23 02:29:09;;;;;;;;;;;;;;;9.02;100.00;101267.44;5013286;28;20008;-72
2021/09/23 02:31:35;;;;;;;;;;;;;;;9.02;100.00;101257.47;5013103;28;20440;-71
2021/09/23 02:34:01;;;;;;;;;;;;;;;8.95;100.00;101248.03;5013152;28;19925;-71
2021/09/23 02:36:28;;;;;;;;;;;;;;;8.96;100.00;101255.16;4996407;28;20463;-71
2021/09/23 02:38:54;;;;;;;;;;;;;;;9.11;100.00;101253.25;5012981;28;19932;-71
2021/09/23 02:41:22;;;;;;;;;;;;;;;9.12;100.00;101244.16;5012984;28;19961;-71
2021/09/23 02:43:48;;;;;;;;;;;;;;;9.12;100.00;101238.75;5012735;28;19930;-71
2021/09/23 02:46:14;;;;;;;;;;;;;;;9.15;100.00;101229.56;5012593;28;19925;-71
2021/09/23 02:48:41;;;;;;;;;;;;;;;9.18;100.00;101232.94;5012611;28;19961;-71
2021/09/23 02:51:09;;;;;;;;;;;;;;;9.17;100.00;101225.78;5013051;28;19957;-71
2021/09/23 02:53:35;;;;;;;;;;;;;;;9.13;100.00;101234.22;5012696;28;20373;-72
2021/09/23 02:56:02;;;;;;;;;;;;;;;9.12;100.00;101225.22;5012693;28;19968;-72
2021/09/23 02:58:30;;;;;;;;;;;;;;;9.09;100.00;101211.88;5012490;28;20031;-72
2021/09/23 03:00:56;;;;;;;;;;;;;;;9.03;100.00;101215.00;5012413;28;19925;-72
2021/09/23 03:03:23;;;;;;;;;;;;;;;9.00;100.00;101215.22;5013840;28;19936;-72
2021/09/23 03:05:49;;;;;;;;;;;;;;;8.93;100.00;101208.47;5012383;28;19983;-71
2021/09/23 03:08:15;;;;;;;;;;;;;;;8.91;100.00;101203.13;5012533;28;20344;-72
2021/09/23 03:10:42;;;;;;;;;;;;;;;8.90;100.00;101203.25;5012493;28;19925;-71
2021/09/23 03:13:08;;;;;;;;;;;;;;;8.85;100.00;101201.72;5012431;28;19957;-71
2021/09/23 03:15:36;;;;;;;;;;;;;;;8.82;100.00;101198.38;5012064;28;20225;-71
2021/09/23 03:18:02;;;;;;;;;;;;;;;8.79;100.00;101206.66;5011991;28;19984;-71
2021/09/23 03:20:28;;;;;;;;;;;;;;;8.73;100.00;101197.13;5012401;28;19925;-71
2021/09/23 03:22:55;;;;;;;;;;;;;;;8.63;100.00;101188.75;5012764;28;20361;-76
2021/09/23 03:25:22;;;;;;;;;;;;;;;8.54;100.00;101192.91;5013423;28;20024;-75
2021/09/23 03:27:48;;;;;;;;;;;;;;;8.48;100.00;101185.19;5011897;28;20404;-75
2021/09/23 03:30:15;;;;;;;;;;;;;;;8.43;100.00;101183.72;5012044;28;20416;-75
2021/09/23 03:32:42;;;;;;;;;;;;;;;8.36;100.00;101185.97;4995517;28;20359;-75
2021/09/23 03:35:09;;;;;;;;;;;;;;;8.35;100.00;101192.31;5012051;28;20024;-75
2021/09/23 03:37:35;;;;;;;;;;;;;;;8.30;100.00;101180.97;5011964;28;19941;-75
2021/09/23 03:40:02;;;;;;;;;;;;;;;8.27;100.00;101176.63;5013285;28;20040;-75
2021/09/23 03:42:28;;;;;;;;;;;;;;;8.25;100.00;101166.88;5012854;28;19926;-75
2021/09/23 03:44:54;;;;;;;;;;;;;;;8.24;100.00;101170.53;5013010;28;20405;-75
2021/09/23 03:47:21;;;;;;;;;;;;;;;8.25;100.00;101169.56;5011542;28;19968;-75
2021/09/23 03:49:49;;;;;;;;;;;;;;;8.24;100.00;101162.41;5011723;28;19926;-76
2021/09/23 03:52:15;;;;;;;;;;;;;;;8.31;100.00;101161.03;5011746;28;20015;-75
2021/09/23 03:54:42;;;;;;;;;;;;;;;8.35;100.00;101152.63;5011368;28;20044;-75
2021/09/23 03:57:08;;;;;;;;;;;;;;;8.35;100.00;101152.63;5011662;28;19925;-75
2021/09/23 03:59:34;;;;;;;;;;;;;;;8.42;100.00;101149.50;5007965;28;19965;-75
2021/09/23 04:02:00;;;;;;;;;;;;;;;8.52;100.00;101158.81;5011534;28;20009;-75
2021/09/23 04:04:27;;;;;;;;;;;;;;;8.63;100.00;101164.41;5011336;28;20377;-75
2021/09/23 04:06:54;;;;;;;;;;;;;;;8.80;100.00;101168.66;5011438;28;19925;-75
2021/09/23 04:09:21;;;;;;;;;;;;;;;8.96;100.00;101165.78;5012187;28;19980;-75
2021/09/23 04:11:48;;;;;;;;;;;;;;;9.17;100.00;101163.47;5011304;28;19929;-75
2021/09/23 04:14:19;;;;;;;;;;;;;;;9.36;100.00;101154.09;5011335;28;20290;-75
2021/09/23 04:16:46;;;;;;;;;;;;;;;9.51;100.00;101157.56;5010971;28;19961;-75
2021/09/23 04:19:17;;;;;;;;;;;;;;;9.62;100.00;101140.53;5011240;28;19932;-75
2021/09/23 04:21:44;;;;;;;;;;;;;;;9.65;100.00;101138.50;5011177;28;19929;-75
2021/09/23 04:24:14;;;;;;;;;;;;;;;9.71;100.00;101137.19;5010963;28;19956;-75
2021/09/23 04:26:42;;;;;;;;;;;;;;;9.78;100.00;101134.91;5010615;28;19980;-75
2021/09/23 04:29:08;;;;;;;;;;;;;;;9.82;100.00;101126.44;5012088;28;19931;-75
2021/09/23 04:31:36;;;;;;;;;;;;;;;9.88;100.00;101123.28;5010954;28;19960;-75
2021/09/23 04:34:02;;;;;;;;;;;;;;;9.94;100.00;101126.53;5010746;28;20016;-75
2021/09/23 04:36:29;;;;;;;;;;;;;;;9.97;100.00;101108.19;5010702;28;20439;-76
2021/09/23 04:38:55;;;;;;;;;;;;;;;10.01;100.00;101106.16;5010713;28;20016;-75
2021/09/23 04:41:23;;;;;;;;;;;;;;;10.05;100.00;101103.06;5010572;28;20012;-75
2021/09/23 04:43:50;;;;;;;;;;;;;;;10.09;100.00;101101.03;5010540;28;19992;-75
2021/09/23 04:46:20;;;;;;;;;;;;;;;10.13;100.00;101105.25;5010118;28;19930;-75
2021/09/23 04:48:48;;;;;;;;;;;;;;;10.16;100.00;101102.28;5010581;28;19968;-75
2021/09/23 04:51:15;;;;;;;;;;;;;;;10.16;100.00;101094.16;5010300;28;19936;-75
2021/09/23 04:53:41;;;;;;;;;;;;;;;10.12;100.00;101091.78;5010341;28;19932;-76
2021/09/23 04:56:07;;;;;;;;;;;;;;;10.06;100.00;101106.66;5010314;28;19975;-76
2021/09/23 04:58:35;;;;;;;;;;;;;;;10.03;100.00;101096.91;5005420;28;19925;-77
2021/09/23 05:01:01;;;;;;;;;;;;;;;10.03;100.00;101094.22;4998359;28;19961;-77
2021/09/23 05:03:28;;;;;;;;;;;;;;;10.00;100.00;101105.25;4999059;28;19956;-77
2021/09/23 05:05:54;;;;;;;;;;;;;;;9.97;100.00;101100.06;4998544;28;20376;-77
2021/09/23 05:08:23;;;;;;;;;;;;;;;10.00;100.00;101096.25;5009942;28;20381;-77
2021/09/23 05:10:49;;;;;;;;;;;;;;;9.98;100.00;101085.53;4994452;28;19932;-78
2021/09/23 05:13:16;;;;;;;;;;;;;;;9.99;100.00;101078.25;4995160;28;20024;-78
2021/09/23 05:15:43;;;;;;;;;;;;;;;9.98;100.00;101065.66;5006938;28;20023;-79
2021/09/23 05:18:10;;;;;;;;;;;;;;;9.99;100.00;101076.41;4993126;28;20021;-80
2021/09/23 05:20:36;;;;;;;;;;;;;;;10.03;100.00;101071.63;5011885;28;19964;-79
2021/09/23 05:23:03;;;;;;;;;;;;;;;10.04;100.00;101063.38;5010641;28;19975;-79
2021/09/23 05:25:30;;;;;;;;;;;;;;;10.05;100.00;101058.81;4992289;28;19940;-76
2021/09/23 05:27:58;;;;;;;;;;;;;;;10.04;100.00;101055.22;4991736;28;20330;-76
2021/09/23 05:30:24;;;;;;;;;;;;;;;10.05;100.00;101061.53;4999376;28;19932;-76
2021/09/23 05:32:53;;;;;;;;;;;;;;;10.02;100.00;101062.63;4994806;28;19939;-76
2021/09/23 05:35:19;;;;;;;;;;;;;;;9.97;100.00;101062.09;4998115;28;19925;-75
2021/09/23 05:37:45;;;;;;;;;;;;;;;9.96;100.00;101060.34;5000965;28;20051;-76
2021/09/23 05:40:13;;;;;;;;;;;;;;;9.93;100.00;101068.72;4992292;28;19968;-76
2021/09/23 05:42:39;;;;;;;;;;;;;;;9.97;100.00;101078.38;4991236;28;19965;-75
2021/09/23 05:45:08;;;;;;;;;;;;;;;10.00;100.00;101075.41;5001363;28;19925;-75
2021/09/23 05:47:34;;;;;;;;;;;;;;;10.09;100.00;101070.28;5004148;28;20363;-76
2021/09/23 05:50:02;;;;;;;;;;;;;;;10.19;100.00;101077.63;5004245;28;20368;-78
2021/09/23 05:52:28;;;;;;;;;;;;;;;10.33;100.00;101079.34;5003664;28;20035;-76
2021/09/23 05:54:55;;;;;;;;;;;;;;;10.47;100.00;101074.75;5021245;28;20019;-76
2021/09/23 05:57:23;;;;;;;;;;;;;;;10.60;100.00;101080.13;5008925;28;20456;-75
2021/09/23 05:59:49;;;;;;;;;;;;;;;10.77;100.00;101074.28;5014790;28;19930;-75
2021/09/23 06:02:16;;;;;;;;;;;;;;;11.01;100.00;101071.53;5014104;28;20345;-75
2021/09/23 06:04:42;;;;;;;;;;;;;;;11.27;100.00;101067.75;4996025;28;19926;-77
2021/09/23 06:07:10;;;;;;;;;;;;;;;11.35;100.00;101059.84;5012280;28;19931;-77
2021/09/23 06:09:37;;;;;;;;;;;;;;;11.34;100.00;101047.25;5000953;28;20416;-76
2021/09/23 06:12:03;;;;;;;;;;;;;;;11.30;100.00;101045.75;5011046;28;20016;-76
2021/09/23 06:14:31;;;;;;;;;;;;;;;11.24;100.00;101047.13;5013684;28;20400;-76
2021/09/23 06:16:57;;;;;;;;;;;;;;;11.25;100.00;101046.16;4998454;28;19933;-76
2021/09/23 06:19:24;;;;;;;;;;;;;;;11.25;100.00;101034.38;4998121;28;19968;-76
2021/09/23 06:21:50;;;;;;;;;;;;;;;11.28;100.00;101039.59;5008420;28;20024;-76
2021/09/23 06:24:18;;;;;;;;;;;;;;;11.40;100.00;101027.75;5008620;28;20027;-76
2021/09/23 06:26:44;;;;;;;;;;;;;;;11.61;100.00;101017.00;5021534;28;20032;-76
2021/09/23 06:29:10;;;;;;;;;;;;;;;11.88;100.00;101010.28;5029417;28;19932;-77
2021/09/23 06:31:36;;;;;;;;;;;;;;;12.25;100.00;101015.41;5003232;28;20370;-76
2021/09/23 06:34:03;;;;;;;;;;;;;;;12.65;100.00;101013.91;4999579;28;19991;-76
2021/09/23 06:36:33;;;;;;;;;;;;;;;12.78;100.00;101000.94;4993114;28;19926;-77
2021/09/23 06:38:59;;;;;;;;;;;;;;;12.75;100.00;100993.06;4998239;28;19941;-76
2021/09/23 06:41:27;;;;;;;;;;;;;;;12.50;100.00;100997.88;5003716;28;20024;-76
2021/09/23 06:43:53;;;;;;;;;;;;;;;12.35;100.00;101000.03;5013067;28;19926;-76
2021/09/23 06:46:20;;;;;;;;;;;;;;;12.19;100.00;101003.19;4994311;28;20024;-76
2021/09/23 06:48:47;;;;;;;;;;;;;;;12.27;100.00;101001.69;4995859;28;19925;-76
2021/09/23 06:51:14;;;;;;;;;;;;;;;12.49;100.00;101006.16;4994130;28;19977;-76
2021/09/23 06:53:40;;;;;;;;;;;;;;;12.65;100.00;100989.38;5004628;28;19967;-74
2021/09/23 06:56:06;;;;;;;;;;;;;;;12.91;100.00;100984.41;5012891;28;19979;-76
2021/09/23 06:58:34;;;;;;;;;;;;;;;13.28;100.00;100961.22;5007961;28;19930;-76
2021/09/23 07:01:19;;;;;;;;;;;;;;;13.63;100.00;100955.38;4994161;28;19989;-73
2021/09/23 07:03:57;;;;;;;;;;;;;;;13.63;100.00;100935.41;4995329;28;20011;-73
2021/09/23 07:06:46;;;;;;;;;;;;;;;13.36;100.00;100935.03;5003847;28;19929;-73
2021/09/23 07:09:20;;;;;;;;;;;;;;;13.21;100.00;100925.47;4992657;28;19982;-73
2021/09/23 07:11:46;;;;;;;;;;;;;;;13.53;100.00;100929.91;4998827;28;19930;-73
2021/09/23 07:14:14;;;;;;;;;;;;;;;13.95;100.00;100937.03;5002047;28;19926;-73
2021/09/23 07:16:40;;;;;;;;;;;;;;;14.46;100.00;100933.19;4997439;28;19997;-74
2021/09/23 07:19:07;;;;;;;;;;;;;;;14.48;100.00;100925.69;5012858;28;19967;-74
2021/09/23 07:21:33;;;;;;;;;;;;;;;14.47;100.00;100928.56;4998403;28;20393;-75
2021/09/23 07:23:59;;;;;;;;;;;;;;;15.00;100.00;100919.84;4994616;28;19930;-74
2021/09/23 07:26:26;;;;;;;;;;;;;;;15.61;100.00;100908.53;4992402;28;20028;-74
2021/09/23 07:28:52;;;;;;;;;;;;;;;15.31;100.00;100911.41;4992407;28;19925;-74
2021/09/23 07:31:20;;;;;;;;;;;;;;;14.93;100.00;100912.44;5005326;28;19964;-74
2021/09/23 07:33:47;;;;;;;;;;;;;;;14.66;100.00;100894.97;4993350;28;19980;-74
2021/09/23 07:36:13;;;;;;;;;;;;;;;14.45;100.00;100893.22;4993426;28;20008;-74
2021/09/23 07:38:39;;;;;;;;;;;;;;;14.74;100.00;100886.88;4975558;28;20385;-77
2021/09/23 07:41:06;;;;;;;;;;;;;;;15.42;100.00;100879.38;4992621;28;19968;-74
2021/09/23 07:43:32;;;;;;;;;;;;;;;15.72;100.00;100879.03;4994843;28;20555;-72
2021/09/23 07:45:58;;;;;;;;;;;;;;;16.02;100.00;100870.66;4999428;28;20366;-73
2021/09/23 07:48:26;;;;;;;;;;;;;;;16.18;100.00;100870.81;5002242;28;20028;-73
2021/09/23 07:50:52;;;;;;;;;;;;;;;16.66;100.00;100856.78;5011943;28;19968;-73
2021/09/23 07:53:19;;;;;;;;;;;;;;;17.07;100.00;100862.53;5016538;28;19925;-73
2021/09/23 07:55:46;;;;;;;;;;;;;;;17.23;100.00;100846.13;5031482;28;19928;-72
2021/09/23 07:58:13;;;;;;;;;;;;;;;16.86;100.00;100854.66;5012461;28;19933;-73
2021/09/23 08:00:41;;;;;;;;;;;;;;;16.49;100.00;100851.19;4992140;28;20020;-73
2021/09/23 08:03:07;;;;;;;;;;;;;;;15.88;100.00;100845.53;5000397;28;20389;-73
2021/09/23 08:05:36;;;;;;;;;;;;;;;15.44;100.00;100850.03;5012216;28;19929;-73
2021/09/23 08:08:04;;;;;;;;;;;;;;;15.22;100.00;100844.81;5007865;28;19936;-73
2021/09/23 08:10:30;;;;;;;;;;;;;;;15.08;100.00;100845.31;4991627;28;20410;-72
2021/09/23 08:12:58;;;;;;;;;;;;;;;15.11;100.00;100845.00;4992202;28;19948;-73
2021/09/23 08:15:24;;;;;;;;;;;;;;;15.11;100.00;100838.69;4991883;28;19925;-73
2021/09/23 08:18:10;;;;;;;;;;;;;;;15.05;100.00;100826.50;5001399;28;20336;-74
2021/09/23 08:20:51;;;;;;;;;;;;;;;15.16;100.00;100822.69;4992287;28;19932;-74
2021/09/23 08:23:18;;;;;;;;;;;;;;;15.09;100.00;100808.75;5001085;28;19932;-73
2021/09/23 08:25:45;;;;;;;;;;;;;;;15.03;100.00;100799.31;5011239;28;19925;-75
2021/09/23 08:28:12;;;;;;;;;;;;;;;15.01;100.00;100798.59;4992684;28;19926;-74
2021/09/23 08:30:41;;;;;;;;;;;;;;;14.99;100.00;100789.69;4992429;28;19930;-73
2021/09/23 08:33:07;;;;;;;;;;;;;;;15.19;100.00;100784.97;4992694;28;19926;-74
2021/09/23 08:35:33;;;;;;;;;;;;;;;15.26;100.00;100776.13;5003304;28;20037;-75
2021/09/23 08:38:03;;;;;;;;;;;;;;;15.29;100.00;100773.13;4994343;28;19933;-75
2021/09/23 08:40:30;;;;;;;;;;;;;;;15.40;100.00;100778.34;5005215;28;19936;-74
2021/09/23 08:42:57;;;;;;;;;;;;;;;15.50;100.00;100756.38;5010579;28;20381;-73
2021/09/23 08:45:23;;;;;;;;;;;;;;;15.57;100.00;100763.81;5010425;28;20403;-74
2021/09/23 08:47:50;;;;;;;;;;;;;;;15.60;100.00;100743.50;5010716;28;20019;-75
2021/09/23 08:50:17;;;;;;;;;;;;;;;15.56;100.00;100739.34;4998437;28;19980;-74
2021/09/23 08:52:46;;;;;;;;;;;;;;;15.50;100.00;100742.69;4999314;28;19932;-75
2021/09/23 08:55:22;;;;;;;;;;;;;;;15.43;100.00;100747.94;5002032;28;19933;-71
2021/09/23 08:57:49;;;;;;;;;;;;;;;15.41;100.00;100744.50;5008910;28;20348;-73
2021/09/23 09:00:17;;;;;;;;;;;;;;;15.39;100.00;100743.78;5006259;28;19937;-73
2021/09/23 09:02:43;;;;;;;;;;;;;;;15.61;100.00;100749.84;5001881;28;19960;-72
2021/09/23 09:05:21;;;;;;;;;;;;;;;15.63;100.00;100736.84;5010264;28;19925;-72
2021/09/23 09:08:21;;;;;;;;;;;;;;;16.22;100.00;100738.03;5007557;28;19926;-73
2021/09/23 09:11:06;;;;;;;;;;;;;;;16.68;100.00;100721.28;5006052;28;19932;-73
2021/09/23 09:13:33;;;;;;;;;;;;;;;17.14;100.00;100720.09;4999564;28;20036;-73
2021/09/23 09:16:05;;;;;;;;;;;;;;;17.12;100.00;100709.31;4990560;28;19972;-72
2021/09/23 09:18:31;;;;;;;;;;;;;;;17.11;100.00;100710.34;5006717;28;19929;-72
2021/09/23 09:20:58;;;;;;;;;;;;;;;17.34;100.00;100712.44;4999621;28;20369;-72
2021/09/23 09:23:26;;;;;;;;;;;;;;;17.65;100.00;100698.03;5010422;28;20416;-72
2021/09/23 09:25:52;;;;;;;;;;;;;;;17.82;100.00;100702.50;4993947;28;20016;-73
2021/09/23 09:28:21;;;;;;;;;;;;;;;17.74;100.00;100697.00;5002253;28;19925;-72
2021/09/23 09:30:53;;;;;;;;;;;;;;;17.64;100.00;100691.69;4994964;28;19932;-72
2021/09/23 09:33:22;;;;;;;;;;;;;;;17.34;100.00;100691.34;5006008;28;19926;-72
2021/09/23 09:35:48;;;;;;;;;;;;;;;17.49;100.00;100682.44;5016682;28;20415;-72
2021/09/23 09:38:15;;;;;;;;;;;;;;;17.71;100.00;100673.50;5004360;28;19932;-72
2021/09/23 09:40:43;;;;;;;;;;;;;;;17.69;100.00;100658.22;5017468;28;19925;-71
2021/09/23 09:43:12;;;;;;;;;;;;;;;17.84;100.00;100656.50;5009381;28;20435;-72
2021/09/23 09:45:41;;;;;;;;;;;;;;;18.04;100.00;100658.91;4993975;28;20440;-72
2021/09/23 09:48:09;;;;;;;;;;;;;;;17.85;100.00;100644.50;5016247;28;19926;-72
2021/09/23 09:50:36;;;;;;;;;;;;;;;17.99;100.00;100655.84;5024761;28;19929;-73
2021/09/23 09:53:05;;;;;;;;;;;;;;;17.83;100.00;100654.78;5021914;28;20324;-73
2021/09/23 09:55:32;;;;;;;;;;;;;;;17.47;100.00;100649.69;5022130;28;20276;-73
2021/09/23 09:57:59;;;;;;;;;;;;;;;17.99;100.00;100655.84;5024816;28;19924;-73
2021/09/23 10:00:27;;;;;;;;;;;;;;;18.21;100.00;100640.47;5025919;28;19932;-73
2021/09/23 10:02:55;;;;;;;;;;;;;;;18.55;100.00;100644.81;5013582;28;20475;-73
2021/09/23 10:05:30;;;;;;;;;;;;;;;19.28;100.00;100644.56;5009899;28;20044;-73
2021/09/23 10:07:58;;;;;;;;;;;;;;;19.79;100.00;100624.66;4993424;28;19976;-75
2021/09/23 10:10:25;;;;;;;;;;;;;;;19.65;100.00;100618.94;4995512;28;20417;-72
2021/09/23 10:12:52;;;;;;;;;;;;;;;19.13;100.00;100628.00;4993780;28;20393;-73
2021/09/23 10:15:20;;;;;;;;;;;;;;;18.72;100.00;100618.97;4993296;28;20457;-72
2021/09/23 10:17:47;;;;;;;;;;;;;;;18.30;100.00;100616.59;4986213;28;19937;-72
2021/09/23 10:20:16;;;;;;;;;;;;;;;18.00;100.00;100611.72;4994504;28;19937;-73
2021/09/23 10:22:43;;;;;;;;;;;;;;;18.07;100.00;100609.13;5002129;28;19925;-73
2021/09/23 10:25:12;;;;;;;;;;;;;;;17.89;100.00;100598.31;4993394;28;19933;-73
2021/09/23 10:30:19;;;;;;;;;;;;;;;17.85;100.00;100592.34;5009947;28;19930;-73
2021/09/23 10:32:46;;;;;;;;;;;;;;;17.81;100.00;100587.38;5001721;28;19933;-73
2021/09/23 10:35:12;;;;;;;;;;;;;;;17.68;100.00;100580.53;4992960;28;19964;-74
2021/09/23 10:37:40;;;;;;;;;;;;;;;17.61;100.00;100575.91;5002211;28;19972;-73
2021/09/23 10:40:08;;;;;;;;;;;;;;;17.78;100.00;100579.50;5012556;28;19926;-73
2021/09/23 10:42:35;;;;;;;;;;;;;;;17.86;100.00;100568.47;5004682;28;20225;-73
2021/09/23 10:45:04;;;;;;;;;;;;;;;17.76;100.00;100552.22;4992914;28;19925;-72
2021/09/23 10:47:33;;;;;;;;;;;;;;;17.73;100.00;100566.28;5000527;28;19933;-73
2021/09/23 10:50:00;;;;;;;;;;;;;;;18.01;100.00;100560.38;5007762;28;19972;-74
2021/09/23 10:52:30;;;;;;;;;;;;;;;18.16;100.00;100564.13;4994111;28;20436;-73
2021/09/23 10:54:59;;;;;;;;;;;;;;;18.46;100.00;100557.97;4996394;28;19933;-73
2021/09/23 10:57:27;;;;;;;;;;;;;;;18.93;100.00;100547.88;5012115;28;19992;-73
2021/09/23 10:59:54;;;;;;;;;;;;;;;19.04;100.00;100545.56;5011095;28;19932;-72
2021/09/23 11:02:22;;;;;;;;;;;;;;;19.05;100.00;100536.25;5002849;28;19983;-76
2021/09/23 11:04:49;;;;;;;;;;;;;;;18.97;100.00;100529.97;5019050;28;19988;-73
2021/09/23 11:07:17;;;;;;;;;;;;;;;18.57;100.00;100533.66;4988416;28;19930;-73
2021/09/23 11:10:01;;;;;;;;;;;;;;;18.58;100.00;100520.78;4993250;28;19951;-73
2021/09/23 11:12:31;;;;;;;;;;;;;;;18.47;100.00;100511.06;4992097;28;20000;-74
2021/09/23 11:14:58;;;;;;;;;;;;;;;18.23;100.00;100515.66;5019711;28;19932;-73
2021/09/23 11:17:25;;;;;;;;;;;;;;;18.26;100.00;100497.97;5000110;28;19926;-74
2021/09/23 11:19:56;;;;;;;;;;;;;;;18.44;100.00;100497.69;4992056;28;20028;-72
2021/09/23 11:22:31;;;;;;;;;;;;;;;18.66;100.00;100498.72;5006307;28;19925;-73
2021/09/23 11:24:58;;;;;;;;;;;;;;;19.10;100.00;100491.69;4992381;28;20285;-73
2021/09/23 11:27:25;;;;;;;;;;;;;;;19.15;100.00;100491.97;4998346;28;20053;-73
2021/09/23 11:29:58;;;;;;;;;;;;;;;18.96;100.00;100487.00;4993543;28;20293;-73
2021/09/23 11:32:25;;;;;;;;;;;;;;;18.58;100.00;100480.38;4991916;28;19926;-73
2021/09/23 11:34:58;;;;;;;;;;;;;;;18.31;100.00;100473.53;5009111;28;19930;-72
2021/09/23 11:37:32;;;;;;;;;;;;;;;18.26;100.00;100477.88;5009686;28;19931;-72
2021/09/23 11:39:59;;;;;;;;;;;;;;;18.10;100.00;100465.94;5003398;28;19933;-72
2021/09/23 11:42:29;;;;;;;;;;;;;;;18.00;100.00;100470.81;4991885;28;19969;-72
2021/09/23 11:45:05;;;;;;;;;;;;;;;18.00;100.00;100470.81;5006166;28;19932;-73
2021/09/23 11:47:32;;;;;;;;;;;;;;;18.02;100.00;100461.34;5017280;28;19933;-72
2021/09/23 11:49:58;;;;;;;;;;;;;;;18.22;100.00;100452.66;5015253;28;20392;-72
2021/09/23 11:52:32;;;;;;;;;;;;;;;18.15;100.00;100448.94;5011335;28;19929;-74
2021/09/23 11:55:00;;;;;;;;;;;;;;;18.32;100.00;100436.81;5000233;28;20413;-73
2021/09/23 11:57:28;;;;;;;;;;;;;;;18.46;100.00;100437.03;5001868;28;20032;-73
2021/09/23 11:59:56;;;;;;;;;;;;;;;18.26;100.00;100431.19;5011008;28;19926;-73
2021/09/23 12:02:23;;;;;;;;;;;;;;;18.05;100.00;100427.19;5007831;28;19932;-71
2021/09/23 12:04:54;;;;;;;;;;;;;;;18.20;100.00;100438.25;5011116;28;20381;-73
2021/09/23 12:07:21;;;;;;;;;;;;;;;18.16;100.00;100421.28;5011013;28;19925;-73
2021/09/23 12:10:01;;;;;;;;;;;;;;;18.36;100.00;100418.91;5010989;28;19929;-73
2021/09/23 12:12:30;;;;;;;;;;;;;;;18.28;100.00;100409.84;5011268;28;19929;-73
2021/09/23 12:14:58;;;;;;;;;;;;;;;18.21;100.00;100401.50;5011123;28;19925;-73
2021/09/23 12:17:26;;;;;;;;;;;;;;;18.26;100.00;100403.72;5010772;28;19926;-72
2021/09/23 12:19:55;;;;;;;;;;;;;;;18.05;100.00;100385.97;5011104;28;19925;-72
2021/09/23 12:22:30;;;;;;;;;;;;;;;18.11;100.00;100370.69;5010626;28;20016;-73
2021/09/23 12:24:57;;;;;;;;;;;;;;;18.03;100.00;100368.84;5010979;28;19972;-73
2021/09/23 12:27:27;;;;;;;;;;;;;;;18.09;100.00;100359.03;4999355;28;19945;-72
2021/09/23 12:29:57;;;;;;;;;;;;;;;18.18;100.00;100350.53;5002348;28;19996;-72
2021/09/23 12:32:34;;;;;;;;;;;;;;;18.29;100.00;100364.88;4999158;28;20020;-72
2021/09/23 12:35:14;;;;;;;;;;;;;;;18.21;100.00;100349.31;5006054;28;19956;-72
2021/09/23 12:37:41;;;;;;;;;;;;;;;18.28;100.00;100343.94;5010747;28;19929;-72